Portada
METAR-TAF:

METAR-TAF

Aeropuertos :

Fort-de-France, Martinica

Aeropuerto Internacional de Martinica Aimé Césaire

latitud: 14-36N, longitud: 061-00W, altitud: 5 m

Observación

El informe se hizo hace 15 minutos, a las 19:00 UTC
Viento 14 kt del este
Temperatura 30°C
Humedad 62%
Presión 1011 hPa
Visibilidad 10 km o más
Nubes dispersas a una altura de 3400 ft
Nubes dispersas a una altura de 4400 ft

METAR: TFFF 211900Z AUTO 10014KT 9999 SCT034 SCT044 30/22 Q1011 NOSIG

Hora: 15:15 (19:15 UTC)

Pronóstico

El informe se hizo hace 2 horas y 15 minutos, a las 17:00 UTC
Pronóstico válido del 21 a las 18 UTC al 22 a las 18 UTC
Viento 10 kt del este
Visibilidad 10 km o más
Nubes dispersas a una altura de 3000 ft

TAF: TFFF 211700Z 2118/2218 10010KT 9999 SCT030

Observaciones y pronósticos meteorológicos de más de 4000 aeropuertos (mensajes METAR y TAF).

Los puntos amarillos y rojos representan las estaciones disponibles.

Ponga el ratón en el punto deseado para ver el nombre de la estación.

Haga clic para ver las observaciones y los pronósticos meteorológicos.

Para cambiar el mapa : haga clic en los botones verdes con una cruz de color negro para hacer un zoom, en el botón verde con un guión para alejar o en las flechas verdes para mapas adyacentes.


METAR-TAF: